sensor_id;sensor_type;location;lat;lon;timestamp;pressure;altitude;pressure_sealevel;temperature;humidity
35878;BME280;21982;49.804;24.072;2024-02-16T00:00:07;97995.50;;;2.45;65.92
35878;BME280;21982;49.804;24.072;2024-02-16T00:02:32;97992.34;;;2.41;65.98
35878;BME280;21982;49.804;24.072;2024-02-16T00:04:58;98009.09;;;2.39;66.26
35878;BME280;21982;49.804;24.072;2024-02-16T00:07:24;97864.09;;;1.44;66.15
35878;BME280;21982;49.804;24.072;2024-02-16T00:09:50;97991.25;;;2.32;66.71
35878;BME280;21982;49.804;24.072;2024-02-16T00:12:18;97989.72;;;2.30;66.26
35878;BME280;21982;49.804;24.072;2024-02-16T00:14:43;97995.19;;;2.27;66.88
35878;BME280;21982;49.804;24.072;2024-02-16T00:17:11;97992.56;;;2.27;66.31
35878;BME280;21982;49.804;24.072;2024-02-16T00:19:37;97993.75;;;2.23;66.53
35878;BME280;21982;49.804;24.072;2024-02-16T00:22:03;97993.03;;;2.21;66.27
35878;BME280;21982;49.804;24.072;2024-02-16T00:24:29;97994.00;;;2.20;66.85
35878;BME280;21982;49.804;24.072;2024-02-16T00:26:57;97986.50;;;2.15;66.56
35878;BME280;21982;49.804;24.072;2024-02-16T00:29:26;97983.88;;;2.15;66.84
35878;BME280;21982;49.804;24.072;2024-02-16T00:31:51;97971.16;;;1.77;66.50
35878;BME280;21982;49.804;24.072;2024-02-16T00:34:19;97988.75;;;2.09;66.54
35878;BME280;21982;49.804;24.072;2024-02-16T00:36:45;97990.78;;;2.05;66.61
35878;BME280;21982;49.804;24.072;2024-02-16T00:39:11;97926.41;;;1.59;67.14
35878;BME280;21982;49.804;24.072;2024-02-16T00:41:36;98000.53;;;2.03;66.90
35878;BME280;21982;49.804;24.072;2024-02-16T00:44:02;97995.41;;;2.01;67.38
35878;BME280;21982;49.804;24.072;2024-02-16T00:46:27;97924.03;;;1.56;67.28
35878;BME280;21982;49.804;24.072;2024-02-16T00:48:53;97985.22;;;1.98;66.74
35878;BME280;21982;49.804;24.072;2024-02-16T00:51:19;97987.09;;;1.96;66.83
35878;BME280;21982;49.804;24.072;2024-02-16T00:53:46;97968.09;;;1.83;67.31
35878;BME280;21982;49.804;24.072;2024-02-16T00:56:14;97946.63;;;1.68;67.03
35878;BME280;21982;49.804;24.072;2024-02-16T00:58:43;97937.72;;;1.71;67.12
35878;BME280;21982;49.804;24.072;2024-02-16T01:01:08;97975.22;;;1.92;66.98
35878;BME280;21982;49.804;24.072;2024-02-16T01:03:37;97978.56;;;1.94;67.14
35878;BME280;21982;49.804;24.072;2024-02-16T01:06:03;97978.78;;;1.91;67.75
35878;BME280;21982;49.804;24.072;2024-02-16T01:08:29;97894.13;;;1.38;67.56
35878;BME280;21982;49.804;24.072;2024-02-16T01:10:55;97979.84;;;1.89;67.70
35878;BME280;21982;49.804;24.072;2024-02-16T01:13:21;97959.06;;;1.76;67.36
35878;BME280;21982;49.804;24.072;2024-02-16T01:15:47;97974.88;;;1.86;67.30
35878;BME280;21982;49.804;24.072;2024-02-16T01:18:12;97787.78;;;0.62;67.48
35878;BME280;21982;49.804;24.072;2024-02-16T01:20:38;97971.66;;;1.82;67.48
35878;BME280;21982;49.804;24.072;2024-02-16T01:23:04;97963.94;;;1.81;67.51
35878;BME280;21982;49.804;24.072;2024-02-16T01:25:30;97942.22;;;1.69;67.37
35878;BME280;21982;49.804;24.072;2024-02-16T01:27:57;97789.22;;;0.66;67.21
35878;BME280;21982;49.804;24.072;2024-02-16T01:30:22;97913.69;;;1.44;67.16
35878;BME280;21982;49.804;24.072;2024-02-16T01:32:48;97907.19;;;1.38;67.32
35878;BME280;21982;49.804;24.072;2024-02-16T01:35:13;97960.00;;;1.75;67.82
35878;BME280;21982;49.804;24.072;2024-02-16T01:37:41;97921.53;;;1.55;67.61
35878;BME280;21982;49.804;24.072;2024-02-16T01:40:08;97954.56;;;1.78;67.40
35878;BME280;21982;49.804;24.072;2024-02-16T01:42:41;97955.72;;;1.74;67.99
35878;BME280;21982;49.804;24.072;2024-02-16T01:45:07;97952.16;;;1.75;67.52
35878;BME280;21982;49.804;24.072;2024-02-16T01:47:35;97954.91;;;1.74;67.58
35878;BME280;21982;49.804;24.072;2024-02-16T01:50:02;97954.91;;;1.74;67.34
35878;BME280;21982;49.804;24.072;2024-02-16T01:52:28;97955.13;;;1.59;67.70
35878;BME280;21982;49.804;24.072;2024-02-16T01:54:54;97832.38;;;0.92;67.77
35878;BME280;21982;49.804;24.072;2024-02-16T01:57:19;97869.06;;;1.13;67.42
35878;BME280;21982;49.804;24.072;2024-02-16T01:59:45;97923.19;;;1.45;67.86
35878;BME280;21982;49.804;24.072;2024-02-16T02:02:11;97956.91;;;1.59;68.01
35878;BME280;21982;49.804;24.072;2024-02-16T02:04:37;97809.22;;;0.65;67.72
35878;BME280;21982;49.804;24.072;2024-02-16T02:07:15;97878.31;;;1.17;67.75
35878;BME280;21982;49.804;24.072;2024-02-16T02:09:42;97943.88;;;1.59;68.38
35878;BME280;21982;49.804;24.072;2024-02-16T02:12:11;97942.16;;;1.47;68.10
35878;BME280;21982;49.804;24.072;2024-02-16T02:14:36;97827.41;;;0.89;67.84
35878;BME280;21982;49.804;24.072;2024-02-16T02:17:02;97943.03;;;1.58;67.86
35878;BME280;21982;49.804;24.072;2024-02-16T02:19:41;97823.94;;;0.78;68.06
35878;BME280;21982;49.804;24.072;2024-02-16T02:22:16;97890.28;;;1.20;67.72
35878;BME280;21982;49.804;24.072;2024-02-16T02:24:46;97898.50;;;1.26;68.33
35878;BME280;21982;49.804;24.072;2024-02-16T02:27:12;97935.31;;;1.57;68.49
35878;BME280;21982;49.804;24.072;2024-02-16T02:29:39;97884.13;;;1.21;67.91
35878;BME280;21982;49.804;24.072;2024-02-16T02:32:05;97943.16;;;1.57;68.29
35878;BME280;21982;49.804;24.072;2024-02-16T02:34:31;97945.97;;;1.54;68.42
35878;BME280;21982;49.804;24.072;2024-02-16T02:36:56;97925.56;;;1.37;68.05
35878;BME280;21982;49.804;24.072;2024-02-16T02:39:22;97923.06;;;1.35;68.48
35878;BME280;21982;49.804;24.072;2024-02-16T02:41:47;97897.50;;;1.16;68.45
35878;BME280;21982;49.804;24.072;2024-02-16T02:44:13;97835.19;;;0.78;68.52
35878;BME280;21982;49.804;24.072;2024-02-16T02:46:41;97907.47;;;1.11;68.65
35878;BME280;21982;49.804;24.072;2024-02-16T02:49:08;97946.56;;;1.46;67.97
35878;BME280;21982;49.804;24.072;2024-02-16T02:51:35;97945.00;;;1.44;68.66
35878;BME280;21982;49.804;24.072;2024-02-16T02:54:00;97948.44;;;1.44;68.33
35878;BME280;21982;49.804;24.072;2024-02-16T02:56:26;97951.88;;;1.45;68.73
35878;BME280;21982;49.804;24.072;2024-02-16T02:58:56;97943.13;;;1.46;68.09
35878;BME280;21982;49.804;24.072;2024-02-16T03:01:21;97806.34;;;0.57;68.61
35878;BME280;21982;49.804;24.072;2024-02-16T03:03:48;97904.28;;;1.19;68.70
35878;BME280;21982;49.804;24.072;2024-02-16T03:06:17;97947.38;;;1.47;68.15
35878;BME280;21982;49.804;24.072;2024-02-16T03:08:43;97850.25;;;0.86;68.07
35878;BME280;21982;49.804;24.072;2024-02-16T03:11:08;97856.56;;;0.94;68.60
35878;BME280;21982;49.804;24.072;2024-02-16T03:13:34;97766.50;;;0.33;68.67
35878;BME280;21982;49.804;24.072;2024-02-16T03:15:59;97964.47;;;1.51;68.37
35878;BME280;21982;49.804;24.072;2024-02-16T03:18:28;97873.28;;;0.92;68.55
35878;BME280;21982;49.804;24.072;2024-02-16T03:20:54;97947.50;;;1.34;68.63
35878;BME280;21982;49.804;24.072;2024-02-16T03:23:22;97966.16;;;1.52;68.74
35878;BME280;21982;49.804;24.072;2024-02-16T03:25:48;97944.41;;;1.40;68.29
35878;BME280;21982;49.804;24.072;2024-02-16T03:28:13;97949.41;;;1.43;68.28
35878;BME280;21982;49.804;24.072;2024-02-16T03:30:40;97974.69;;;1.54;68.40
35878;BME280;21982;49.804;24.072;2024-02-16T03:33:08;97961.66;;;1.54;68.83
35878;BME280;21982;49.804;24.072;2024-02-16T03:35:36;97780.34;;;0.45;68.38
35878;BME280;21982;49.804;24.072;2024-02-16T03:38:12;97921.03;;;1.27;68.25
35878;BME280;21982;49.804;24.072;2024-02-16T03:40:38;97964.25;;;1.54;68.15
35878;BME280;21982;49.804;24.072;2024-02-16T03:43:04;97964.38;;;1.52;68.56
35878;BME280;21982;49.804;24.072;2024-02-16T03:45:29;97969.69;;;1.51;68.68
35878;BME280;21982;49.804;24.072;2024-02-16T03:47:54;97961.16;;;1.49;68.16
35878;BME280;21982;49.804;24.072;2024-02-16T03:50:20;97971.00;;;1.45;68.92
35878;BME280;21982;49.804;24.072;2024-02-16T03:52:46;97942.97;;;1.25;68.27
35878;BME280;21982;49.804;24.072;2024-02-16T03:55:14;97898.63;;;0.90;68.56
35878;BME280;21982;49.804;24.072;2024-02-16T03:57:41;97819.53;;;0.43;68.50
35878;BME280;21982;49.804;24.072;2024-02-16T04:00:09;97974.41;;;1.34;68.58
35878;BME280;21982;49.804;24.072;2024-02-16T04:02:37;97944.47;;;1.16;69.05
35878;BME280;21982;49.804;24.072;2024-02-16T04:05:03;97900.41;;;0.89;68.87
35878;BME280;21982;49.804;24.072;2024-02-16T04:07:28;97972.38;;;1.27;68.88
35878;BME280;21982;49.804;24.072;2024-02-16T04:09:54;97883.84;;;0.66;68.71
35878;BME280;21982;49.804;24.072;2024-02-16T04:12:22;97898.81;;;0.76;68.96
35878;BME280;21982;49.804;24.072;2024-02-16T04:14:47;97958.91;;;1.09;68.60
35878;BME280;21982;49.804;24.072;2024-02-16T04:17:13;97972.44;;;1.14;69.10
35878;BME280;21982;49.804;24.072;2024-02-16T04:19:38;97964.34;;;1.06;68.98
35878;BME280;21982;49.804;24.072;2024-02-16T04:22:04;97979.75;;;1.09;69.32
35878;BME280;21982;49.804;24.072;2024-02-16T04:24:29;97946.50;;;0.89;68.77
35878;BME280;21982;49.804;24.072;2024-02-16T04:26:55;97958.22;;;0.83;68.66
35878;BME280;21982;49.804;24.072;2024-02-16T04:29:20;97936.25;;;0.75;68.89
35878;BME280;21982;49.804;24.072;2024-02-16T04:31:46;97975.13;;;1.02;69.38
35878;BME280;21982;49.804;24.072;2024-02-16T04:34:12;97979.16;;;1.06;69.29
35878;BME280;21982;49.804;24.072;2024-02-16T04:36:41;97806.81;;;0.04;68.77
35878;BME280;21982;49.804;24.072;2024-02-16T04:39:07;97974.19;;;1.03;68.87
35878;BME280;21982;49.804;24.072;2024-02-16T04:41:35;97959.03;;;0.84;69.01
35878;BME280;21982;49.804;24.072;2024-02-16T04:44:01;97920.78;;;0.60;69.13
35878;BME280;21982;49.804;24.072;2024-02-16T04:46:26;97935.16;;;0.66;69.55
35878;BME280;21982;49.804;24.072;2024-02-16T04:48:53;97944.88;;;0.75;69.13
35878;BME280;21982;49.804;24.072;2024-02-16T04:51:18;97945.41;;;0.80;69.25
35878;BME280;21982;49.804;24.072;2024-02-16T04:53:43;97931.22;;;0.60;69.49
35878;BME280;21982;49.804;24.072;2024-02-16T04:56:09;97969.84;;;0.90;69.05
35878;BME280;21982;49.804;24.072;2024-02-16T04:58:34;97958.66;;;0.77;69.20
35878;BME280;21982;49.804;24.072;2024-02-16T05:01:00;97973.53;;;0.88;68.94
35878;BME280;21982;49.804;24.072;2024-02-16T05:03:25;97977.91;;;0.87;69.38
35878;BME280;21982;49.804;24.072;2024-02-16T05:05:51;97983.00;;;0.89;69.52
35878;BME280;21982;49.804;24.072;2024-02-16T05:08:22;97921.44;;;0.51;69.43
35878;BME280;21982;49.804;24.072;2024-02-16T05:10:47;97958.38;;;0.69;69.67
35878;BME280;21982;49.804;24.072;2024-02-16T05:13:15;97983.44;;;0.83;69.53
35878;BME280;21982;49.804;24.072;2024-02-16T05:15:41;97879.16;;;0.24;69.43
35878;BME280;21982;49.804;24.072;2024-02-16T05:18:06;97984.88;;;0.87;69.16
35878;BME280;21982;49.804;24.072;2024-02-16T05:20:32;97993.44;;;0.89;69.50
35878;BME280;21982;49.804;24.072;2024-02-16T05:23:00;97964.19;;;0.73;69.96
35878;BME280;21982;49.804;24.072;2024-02-16T05:25:26;97827.81;;;-0.11;69.44
35878;BME280;21982;49.804;24.072;2024-02-16T05:27:51;97886.53;;;0.30;69.65
35878;BME280;21982;49.804;24.072;2024-02-16T05:30:17;97993.00;;;0.95;69.92
35878;BME280;21982;49.804;24.072;2024-02-16T05:32:43;97993.84;;;0.95;69.83
35878;BME280;21982;49.804;24.072;2024-02-16T05:35:12;97763.38;;;-0.44;69.72
35878;BME280;21982;49.804;24.072;2024-02-16T05:37:41;97704.09;;;-0.88;69.01
35878;BME280;21982;49.804;24.072;2024-02-16T05:40:12;98003.03;;;0.88;70.16
35878;BME280;21982;49.804;24.072;2024-02-16T05:42:47;98004.81;;;0.88;69.94
35878;BME280;21982;49.804;24.072;2024-02-16T05:45:14;98007.09;;;0.92;69.46
35878;BME280;21982;49.804;24.072;2024-02-16T05:47:41;97960.38;;;0.65;69.45
35878;BME280;21982;49.804;24.072;2024-02-16T05:50:06;98007.91;;;0.93;69.49
35878;BME280;21982;49.804;24.072;2024-02-16T05:52:32;97830.00;;;-0.17;69.55
35878;BME280;21982;49.804;24.072;2024-02-16T05:54:58;97987.00;;;0.82;70.22
35878;BME280;21982;49.804;24.072;2024-02-16T05:57:23;97987.94;;;0.81;69.58
35878;BME280;21982;49.804;24.072;2024-02-16T05:59:50;98014.38;;;1.11;70.07
35878;BME280;21982;49.804;24.072;2024-02-16T06:02:17;97985.69;;;1.00;70.01
35878;BME280;21982;49.804;24.072;2024-02-16T06:04:43;98018.72;;;1.23;69.59
35878;BME280;21982;49.804;24.072;2024-02-16T06:07:08;97915.13;;;0.66;69.42
35878;BME280;21982;49.804;24.072;2024-02-16T06:09:34;98028.50;;;1.32;69.49
35878;BME280;21982;49.804;24.072;2024-02-16T06:12:04;98028.28;;;1.36;69.48
35878;BME280;21982;49.804;24.072;2024-02-16T06:14:33;98031.81;;;1.34;69.60
35878;BME280;21982;49.804;24.072;2024-02-16T06:16:58;98024.72;;;1.37;69.83
35878;BME280;21982;49.804;24.072;2024-02-16T06:19:25;98029.47;;;1.43;69.91
35878;BME280;21982;49.804;24.072;2024-02-16T06:21:53;97982.38;;;1.09;69.30
35878;BME280;21982;49.804;24.072;2024-02-16T06:24:22;98024.97;;;1.45;69.45
35878;BME280;21982;49.804;24.072;2024-02-16T06:26:49;98027.84;;;1.53;69.23
35878;BME280;21982;49.804;24.072;2024-02-16T06:29:15;98041.88;;;1.63;69.75
35878;BME280;21982;49.804;24.072;2024-02-16T06:31:47;98014.84;;;1.64;69.25
35878;BME280;21982;49.804;24.072;2024-02-16T06:34:15;98040.72;;;1.78;69.54
35878;BME280;21982;49.804;24.072;2024-02-16T06:36:42;98052.47;;;1.73;69.27
35878;BME280;21982;49.804;24.072;2024-02-16T06:39:07;98047.72;;;1.66;69.47
35878;BME280;21982;49.804;24.072;2024-02-16T06:41:34;97875.25;;;0.53;69.97
35878;BME280;21982;49.804;24.072;2024-02-16T06:44:00;98014.06;;;1.51;69.26
35878;BME280;21982;49.804;24.072;2024-02-16T06:46:25;98048.81;;;1.86;69.92
35878;BME280;21982;49.804;24.072;2024-02-16T06:48:53;98038.47;;;1.85;69.83
35878;BME280;21982;49.804;24.072;2024-02-16T06:51:24;97992.63;;;1.58;69.76
35878;BME280;21982;49.804;24.072;2024-02-16T06:53:54;97963.03;;;1.47;69.31
35878;BME280;21982;49.804;24.072;2024-02-16T06:56:20;97877.81;;;1.01;68.74
35878;BME280;21982;49.804;24.072;2024-02-16T06:58:47;97966.38;;;1.49;68.71
35878;BME280;21982;49.804;24.072;2024-02-16T07:01:15;98053.97;;;2.21;69.73
35878;BME280;21982;49.804;24.072;2024-02-16T07:03:43;98056.34;;;2.47;69.59
35878;BME280;21982;49.804;24.072;2024-02-16T07:06:08;98054.44;;;2.60;68.38
35878;BME280;21982;49.804;24.072;2024-02-16T07:08:39;98059.56;;;2.73;68.67
35878;BME280;21982;49.804;24.072;2024-02-16T07:11:08;98040.50;;;2.82;68.76
35878;BME280;21982;49.804;24.072;2024-02-16T07:13:37;97969.47;;;2.54;68.70
35878;BME280;21982;49.804;24.072;2024-02-16T07:16:03;98015.75;;;2.97;68.48
35878;BME280;21982;49.804;24.072;2024-02-16T07:18:30;98021.66;;;3.10;67.63
35878;BME280;21982;49.804;24.072;2024-02-16T07:20:56;97963.81;;;2.81;67.93
35878;BME280;21982;49.804;24.072;2024-02-16T07:23:21;98022.91;;;3.27;67.75
35878;BME280;21982;49.804;24.072;2024-02-16T07:25:50;98041.41;;;3.46;67.42
35878;BME280;21982;49.804;24.072;2024-02-16T07:28:15;97947.44;;;2.79;67.51
35878;BME280;21982;49.804;24.072;2024-02-16T07:30:44;98055.38;;;3.35;67.62
35878;BME280;21982;49.804;24.072;2024-02-16T07:33:09;98058.38;;;3.20;67.09
35878;BME280;21982;49.804;24.072;2024-02-16T07:35:35;98019.69;;;2.91;67.84
35878;BME280;21982;49.804;24.072;2024-02-16T07:38:02;98003.56;;;2.75;67.44
35878;BME280;21982;49.804;24.072;2024-02-16T07:40:28;98058.31;;;3.10;67.76
35878;BME280;21982;49.804;24.072;2024-02-16T07:42:54;98055.16;;;3.27;67.19
35878;BME280;21982;49.804;24.072;2024-02-16T07:45:20;98054.22;;;3.49;67.68
35878;BME280;21982;49.804;24.072;2024-02-16T07:47:46;98051.84;;;3.78;66.98
35878;BME280;21982;49.804;24.072;2024-02-16T07:50:12;98065.63;;;4.01;67.06
35878;BME280;21982;49.804;24.072;2024-02-16T07:52:40;98053.31;;;4.13;66.41
35878;BME280;21982;49.804;24.072;2024-02-16T07:55:06;98040.13;;;4.03;66.20
35878;BME280;21982;49.804;24.072;2024-02-16T07:57:32;97927.81;;;3.38;65.90
35878;BME280;21982;49.804;24.072;2024-02-16T07:59:58;98056.22;;;4.19;66.06
35878;BME280;21982;49.804;24.072;2024-02-16T08:02:23;98055.31;;;4.30;65.61
35878;BME280;21982;49.804;24.072;2024-02-16T08:04:52;98057.28;;;4.37;65.69
35878;BME280;21982;49.804;24.072;2024-02-16T08:07:17;98056.66;;;4.45;65.77
35878;BME280;21982;49.804;24.072;2024-02-16T08:09:45;98050.75;;;4.62;64.94
35878;BME280;21982;49.804;24.072;2024-02-16T08:12:11;98059.91;;;4.68;65.17
35878;BME280;21982;49.804;24.072;2024-02-16T08:14:40;98082.16;;;4.74;64.95
35878;BME280;21982;49.804;24.072;2024-02-16T08:17:09;98048.78;;;4.55;64.49
35878;BME280;21982;49.804;24.072;2024-02-16T08:19:38;98050.50;;;4.65;64.87
35878;BME280;21982;49.804;24.072;2024-02-16T08:22:09;98085.41;;;4.96;64.72
35878;BME280;21982;49.804;24.072;2024-02-16T08:24:37;98010.69;;;4.51;64.44
35878;BME280;21982;49.804;24.072;2024-02-16T08:27:04;98034.16;;;4.52;64.42
35878;BME280;21982;49.804;24.072;2024-02-16T08:29:30;97974.19;;;4.28;64.29
35878;BME280;21982;49.804;24.072;2024-02-16T08:31:56;98058.16;;;4.78;64.39
35878;BME280;21982;49.804;24.072;2024-02-16T08:34:22;98088.94;;;4.86;64.05
35878;BME280;21982;49.804;24.072;2024-02-16T08:36:48;98085.47;;;4.76;64.00
35878;BME280;21982;49.804;24.072;2024-02-16T08:39:15;98080.25;;;4.85;64.41
35878;BME280;21982;49.804;24.072;2024-02-16T08:41:41;97935.56;;;4.30;64.08
35878;BME280;21982;49.804;24.072;2024-02-16T08:44:07;98081.66;;;5.49;64.02
35878;BME280;21982;49.804;24.072;2024-02-16T08:46:36;98080.53;;;5.90;63.32
35878;BME280;21982;49.804;24.072;2024-02-16T08:49:03;98081.66;;;5.87;62.60
35878;BME280;21982;49.804;24.072;2024-02-16T08:51:29;98078.31;;;5.66;62.19
35878;BME280;21982;49.804;24.072;2024-02-16T08:53:57;98074.16;;;5.44;62.40
35878;BME280;21982;49.804;24.072;2024-02-16T08:56:30;98037.34;;;5.05;62.41
35878;BME280;21982;49.804;24.072;2024-02-16T08:58:56;98079.88;;;4.99;62.91
35878;BME280;21982;49.804;24.072;2024-02-16T09:01:32;98080.28;;;4.95;63.04
35878;BME280;21982;49.804;24.072;2024-02-16T09:03:58;98020.38;;;4.60;63.25
35878;BME280;21982;49.804;24.072;2024-02-16T09:06:24;98025.63;;;4.60;63.42
35878;BME280;21982;49.804;24.072;2024-02-16T09:08:49;97906.69;;;3.81;63.13
35878;BME280;21982;49.804;24.072;2024-02-16T09:11:18;98037.31;;;4.46;63.07
35878;BME280;21982;49.804;24.072;2024-02-16T09:13:44;98011.78;;;4.18;63.18
35878;BME280;21982;49.804;24.072;2024-02-16T09:16:10;98074.34;;;4.93;63.66
35878;BME280;21982;49.804;24.072;2024-02-16T09:18:35;98067.09;;;5.25;63.20
35878;BME280;21982;49.804;24.072;2024-02-16T09:21:05;98076.38;;;5.39;62.96
35878;BME280;21982;49.804;24.072;2024-02-16T09:23:34;98033.22;;;5.22;62.37
35878;BME280;21982;49.804;24.072;2024-02-16T09:26:00;98079.69;;;5.41;62.15
35878;BME280;21982;49.804;24.072;2024-02-16T09:28:27;97971.94;;;4.64;62.28
35878;BME280;21982;49.804;24.072;2024-02-16T09:30:58;97924.28;;;4.40;62.48
35878;BME280;21982;49.804;24.072;2024-02-16T09:33:26;98002.94;;;4.99;62.62
35878;BME280;21982;49.804;24.072;2024-02-16T09:35:52;98085.09;;;5.59;62.55
35878;BME280;21982;49.804;24.072;2024-02-16T09:38:18;98094.50;;;5.71;62.50
35878;BME280;21982;49.804;24.072;2024-02-16T09:40:44;98078.06;;;5.88;62.32
35878;BME280;21982;49.804;24.072;2024-02-16T09:43:30;98087.72;;;6.07;61.88
35878;BME280;21982;49.804;24.072;2024-02-16T09:45:57;98073.34;;;6.01;61.77
35878;BME280;21982;49.804;24.072;2024-02-16T09:48:25;97984.97;;;5.62;61.70
35878;BME280;21982;49.804;24.072;2024-02-16T09:50:55;98030.03;;;6.05;61.30
35878;BME280;21982;49.804;24.072;2024-02-16T09:55:56;98081.00;;;6.51;61.39
35878;BME280;21982;49.804;24.072;2024-02-16T09:58:22;98086.19;;;6.61;61.24
35878;BME280;21982;49.804;24.072;2024-02-16T10:00:53;98078.00;;;6.73;60.89
35878;BME280;21982;49.804;24.072;2024-02-16T10:03:30;97975.63;;;6.16;60.72
35878;BME280;21982;49.804;24.072;2024-02-16T10:06:09;98063.19;;;6.72;60.77
35878;BME280;21982;49.804;24.072;2024-02-16T10:08:53;98066.34;;;7.03;61.08
35878;BME280;21982;49.804;24.072;2024-02-16T10:11:20;98024.25;;;6.94;60.85
35878;BME280;21982;49.804;24.072;2024-02-16T10:16:22;98066.63;;;7.46;59.32
35878;BME280;21982;49.804;24.072;2024-02-16T10:18:47;97971.00;;;7.00;59.88
35878;BME280;21982;49.804;24.072;2024-02-16T10:21:13;98016.19;;;7.40;59.39
35878;BME280;21982;49.804;24.072;2024-02-16T10:23:42;98059.31;;;7.75;58.73
35878;BME280;21982;49.804;24.072;2024-02-16T10:26:08;98061.06;;;7.84;59.17
35878;BME280;21982;49.804;24.072;2024-02-16T10:28:33;98061.97;;;7.93;58.48
35878;BME280;21982;49.804;24.072;2024-02-16T10:30:59;98052.44;;;8.00;58.88
35878;BME280;21982;49.804;24.072;2024-02-16T10:33:31;97968.69;;;7.50;58.60
35878;BME280;21982;49.804;24.072;2024-02-16T10:35:57;98025.81;;;7.85;58.07
35878;BME280;21982;49.804;24.072;2024-02-16T10:38:24;98067.09;;;8.20;58.30
35878;BME280;21982;49.804;24.072;2024-02-16T10:40:52;98049.19;;;8.32;57.52
35878;BME280;21982;49.804;24.072;2024-02-16T10:43:22;98031.84;;;8.47;57.25
35878;BME280;21982;49.804;24.072;2024-02-16T10:45:49;98018.63;;;8.81;57.30
35878;BME280;21982;49.804;24.072;2024-02-16T10:48:18;98003.91;;;10.34;57.27
35878;BME280;21982;49.804;24.072;2024-02-16T10:50:44;98034.78;;;12.20;54.57
35878;BME280;21982;49.804;24.072;2024-02-16T10:53:24;97990.72;;;13.50;52.41
35878;BME280;21982;49.804;24.072;2024-02-16T10:55:50;98041.09;;;15.12;49.95
35878;BME280;21982;49.804;24.072;2024-02-16T10:58:20;98033.75;;;16.21;48.06
35878;BME280;21982;49.804;24.072;2024-02-16T11:00:54;98022.72;;;17.02;46.07
35878;BME280;21982;49.804;24.072;2024-02-16T11:03:26;98008.31;;;17.48;44.97
35878;BME280;21982;49.804;24.072;2024-02-16T11:05:53;97945.00;;;17.60;43.74
35878;BME280;21982;49.804;24.072;2024-02-16T11:08:25;98034.69;;;18.82;43.12
35878;BME280;21982;49.804;24.072;2024-02-16T11:11:00;98017.34;;;19.69;42.56
35878;BME280;21982;49.804;24.072;2024-02-16T11:13:33;98008.38;;;20.75;40.19
35878;BME280;21982;49.804;24.072;2024-02-16T11:16:12;97979.09;;;21.30;39.10
35878;BME280;21982;49.804;24.072;2024-02-16T11:18:41;98011.56;;;21.81;37.70
35878;BME280;21982;49.804;24.072;2024-02-16T11:21:14;98008.41;;;22.00;37.10
35878;BME280;21982;49.804;24.072;2024-02-16T11:23:40;97991.13;;;21.68;37.13
35878;BME280;21982;49.804;24.072;2024-02-16T11:26:09;97987.06;;;21.54;37.18
35878;BME280;21982;49.804;24.072;2024-02-16T11:28:41;97996.50;;;21.68;36.73
35878;BME280;21982;49.804;24.072;2024-02-16T11:31:07;97915.09;;;21.09;36.28
35878;BME280;21982;49.804;24.072;2024-02-16T11:33:35;97974.19;;;21.16;35.69
35878;BME280;21982;49.804;24.072;2024-02-16T11:36:04;97989.47;;;20.98;36.09
35878;BME280;21982;49.804;24.072;2024-02-16T11:38:37;97988.41;;;20.99;36.37
35878;BME280;21982;49.804;24.072;2024-02-16T11:41:06;97991.81;;;20.95;36.14
35878;BME280;21982;49.804;24.072;2024-02-16T11:43:35;97993.47;;;20.96;35.56
35878;BME280;21982;49.804;24.072;2024-02-16T11:46:14;97957.94;;;20.70;34.59
35878;BME280;21982;49.804;24.072;2024-02-16T11:48:40;97988.44;;;20.88;35.50
35878;BME280;21982;49.804;24.072;2024-02-16T11:51:06;97965.06;;;20.77;35.03
35878;BME280;21982;49.804;24.072;2024-02-16T11:53:35;97957.75;;;20.89;34.98
35878;BME280;21982;49.804;24.072;2024-02-16T11:56:01;97993.28;;;21.14;34.64
35878;BME280;21982;49.804;24.072;2024-02-16T11:58:27;97966.69;;;21.29;34.02
35878;BME280;21982;49.804;24.072;2024-02-16T12:00:53;97964.31;;;21.61;33.56
35878;BME280;21982;49.804;24.072;2024-02-16T12:03:23;97989.53;;;22.00;32.80
35878;BME280;21982;49.804;24.072;2024-02-16T12:05:56;97935.41;;;21.90;32.40
35878;BME280;21982;49.804;24.072;2024-02-16T12:08:23;97998.38;;;22.46;32.07
35878;BME280;21982;49.804;24.072;2024-02-16T12:10:49;97956.78;;;22.64;31.54
35878;BME280;21982;49.804;24.072;2024-02-16T12:13:16;97985.84;;;22.95;31.12
35878;BME280;21982;49.804;24.072;2024-02-16T12:15:49;97977.38;;;23.09;31.11
35878;BME280;21982;49.804;24.072;2024-02-16T12:18:24;97977.44;;;23.14;31.36
35878;BME280;21982;49.804;24.072;2024-02-16T12:21:00;97974.53;;;22.98;30.74
35878;BME280;21982;49.804;24.072;2024-02-16T12:23:26;97965.94;;;22.63;30.20
35878;BME280;21982;49.804;24.072;2024-02-16T12:25:52;97924.84;;;22.17;29.90
35878;BME280;21982;49.804;24.072;2024-02-16T12:28:19;97984.69;;;22.53;29.87
35878;BME280;21982;49.804;24.072;2024-02-16T12:30:48;97969.84;;;22.50;29.51
35878;BME280;21982;49.804;24.072;2024-02-16T12:33:14;97978.50;;;22.52;29.37
35878;BME280;21982;49.804;24.072;2024-02-16T12:35:40;97849.41;;;21.72;29.54
35878;BME280;21982;49.804;24.072;2024-02-16T12:38:06;97855.53;;;21.67;29.49
35878;BME280;21982;49.804;24.072;2024-02-16T12:40:31;97961.28;;;22.03;29.42
35878;BME280;21982;49.804;24.072;2024-02-16T12:42:57;97886.00;;;21.23;29.70
35878;BME280;21982;49.804;24.072;2024-02-16T12:45:25;97966.19;;;20.92;29.92
35878;BME280;21982;49.804;24.072;2024-02-16T12:47:51;97942.97;;;20.28;30.56
35878;BME280;21982;49.804;24.072;2024-02-16T12:50:17;97964.91;;;19.90;31.17
35878;BME280;21982;49.804;24.072;2024-02-16T12:52:45;97932.03;;;19.34;31.46
35878;BME280;21982;49.804;24.072;2024-02-16T12:55:11;97962.63;;;19.63;31.56
35878;BME280;21982;49.804;24.072;2024-02-16T12:57:36;97960.25;;;19.97;31.27
35878;BME280;21982;49.804;24.072;2024-02-16T13:00:06;97974.06;;;20.00;30.56
35878;BME280;21982;49.804;24.072;2024-02-16T13:02:32;97955.41;;;19.34;31.46